Time;durP1;ratioP1;P1;durP2;ratioP2;P2;SDS_P1;SDS_P2;PMS_P1;PMS_P2;Temp;Humidity;BMP_temperature;BMP_pressure;BME280_temperature;BME280_humidity;BME280_pressure;Samples;Min_cycle;Max_cycle;Signal;HPM_P1;HPM_P2
2022/03/20 00:01:17;;;;;;;16.10;9.32;;;;;;;5.90;22.50;102197.62;7710608;32;38567;-79
2022/03/20 00:05:38;;;;;;;15.15;7.95;;;;;;;5.66;22.99;102185.13;7710797;32;37767;-79
2022/03/20 00:09:55;;;;;;;14.75;7.87;;;;;;;5.66;23.01;102179.72;7710805;32;39301;-79
2022/03/20 00:14:10;;;;;;;14.07;8.02;;;;;;;5.54;22.99;102178.44;7710515;32;41277;-78
2022/03/20 00:18:27;;;;;;;12.73;7.95;;;;;;;5.50;22.64;102182.50;7710471;32;37799;-79
2022/03/20 00:22:43;;;;;;;17.15;7.10;;;;;;;5.61;22.58;102169.41;7710409;32;37357;-79
2022/03/20 00:27:00;;;;;;;13.77;7.50;;;;;;;5.60;22.23;102167.72;7710282;32;39404;-79
2022/03/20 00:31:16;;;;;;;13.65;7.72;;;;;;;5.56;22.06;102174.53;7709858;32;40739;-78
2022/03/20 00:35:32;;;;;;;16.23;8.27;;;;;;;5.35;22.36;102179.75;7709967;32;37794;-78
2022/03/20 00:39:52;;;;;;;11.68;6.53;;;;;;;5.41;22.33;102182.56;7710035;32;37256;-78
2022/03/20 00:44:08;;;;;;;13.02;7.15;;;;;;;5.21;22.32;102167.84;7709826;32;40099;-79
2022/03/20 00:48:24;;;;;;;12.73;7.25;;;;;;;5.24;22.18;102184.56;7711976;32;40075;-79
2022/03/20 00:52:40;;;;;;;12.82;7.10;;;;;;;5.24;21.80;102180.97;7721491;32;38679;-78
2022/03/20 00:56:56;;;;;;;12.27;6.82;;;;;;;5.34;21.54;102180.75;7739828;32;37926;-78
2022/03/20 01:01:14;;;;;;;14.02;7.20;;;;;;;5.30;21.78;102171.34;7731361;32;39182;-78
2022/03/20 01:05:30;;;;;;;17.20;7.22;;;;;;;5.06;22.31;102162.34;7713061;32;40000;-79
2022/03/20 01:09:46;;;;;;;12.68;6.80;;;;;;;5.20;22.18;102164.28;7712908;32;37827;-78
2022/03/20 01:14:02;;;;;;;14.57;6.85;;;;;;;5.15;21.97;102166.66;7712907;32;38126;-78
2022/03/20 01:18:19;;;;;;;11.60;6.50;;;;;;;5.35;21.82;102179.75;7712830;32;40045;-78
2022/03/20 01:22:40;;;;;;;12.15;7.12;;;;;;;5.57;21.66;102172.66;7712746;32;39958;-79
2022/03/20 01:26:57;;;;;;;13.23;6.90;;;;;;;5.15;22.22;102185.59;7712772;32;38096;-78
2022/03/20 01:31:13;;;;;;;15.93;7.37;;;;;;;5.41;22.07;102182.56;7722380;32;37011;-79
2022/03/20 01:35:29;;;;;;;13.48;7.30;;;;;;;5.11;22.49;102189.69;7739404;32;39912;-79
2022/03/20 01:39:45;;;;;;;19.77;8.30;;;;;;;5.04;22.66;102194.94;7739349;32;39759;-78
2022/03/20 01:44:03;;;;;;;12.43;6.87;;;;;;;5.01;23.00;102195.28;7739178;32;37804;-78
2022/03/20 01:48:19;;;;;;;15.32;7.32;;;;;;;4.98;22.91;102203.75;7739365;32;37195;-78
2022/03/20 01:52:35;;;;;;;12.77;7.05;;;;;;;4.92;23.19;102203.63;7738976;32;39095;-78
2022/03/20 01:56:51;;;;;;;15.65;8.43;;;;;;;5.34;22.83;102205.09;7739015;32;39759;-77
2022/03/20 02:01:07;;;;;;;12.82;7.75;;;;;;;5.20;23.07;102204.00;7738753;32;38656;-78
2022/03/20 02:05:23;;;;;;;14.90;8.00;;;;;;;5.19;23.33;102205.88;7739081;32;37106;-78
2022/03/20 02:09:41;;;;;;;17.83;8.10;;;;;;;4.80;23.55;102205.88;7739022;32;39901;-78
2022/03/20 02:13:57;;;;;;;15.05;7.57;;;;;;;5.34;23.27;102199.69;7738835;32;39922;-78
2022/03/20 02:18:14;;;;;;;14.15;8.20;;;;;;;5.29;23.40;102212.91;7715055;32;38414;-78
2022/03/20 02:22:32;;;;;;;13.90;7.37;;;;;;;5.01;23.90;102213.37;7712048;32;37059;-78
2022/03/20 02:26:48;;;;;;;15.30;7.37;;;;;;;5.18;23.73;102211.47;7712007;32;40053;-78
2022/03/20 02:31:05;;;;;;;16.58;7.65;;;;;;;5.01;24.16;102205.28;7712174;32;41392;-78
2022/03/20 02:35:22;;;;;;;13.75;8.60;;;;;;;4.62;24.47;102211.47;7711680;32;38870;-78
2022/03/20 02:39:38;;;;;;;12.80;7.37;;;;;;;4.89;24.52;102216.47;7711918;32;37465;-78
2022/03/20 02:43:54;;;;;;;15.77;8.88;;;;;;;4.54;24.93;102215.06;7711858;32;39397;-78
2022/03/20 02:48:11;;;;;;;11.52;6.78;;;;;;;4.34;25.10;102217.28;7711743;32;39889;-78
2022/03/20 02:52:32;;;;;;;16.08;8.55;;;;;;;4.53;25.45;102226.03;7711504;32;38028;-78
2022/03/20 02:56:48;;;;;;;15.80;8.18;;;;;;;4.58;25.49;102220.97;7711694;32;37246;-78
2022/03/20 03:01:04;;;;;;;16.55;8.32;;;;;;;4.66;25.56;102229.06;7711509;32;40177;-78
2022/03/20 03:05:22;;;;;;;13.88;7.95;;;;;;;4.19;26.51;102227.97;7711602;32;40961;-79
2022/03/20 03:18:49;;;;;;;14.55;8.57;;;;;;;4.17;27.05;102229.97;7687479;32;39303;-78
2022/03/20 03:23:05;;;;;;;15.13;7.80;;;;;;;4.09;27.29;102229.97;7711424;32;39705;-78
2022/03/20 03:27:22;;;;;;;15.48;8.82;;;;;;;4.12;27.30;102235.88;7711334;32;37807;-78
2022/03/20 03:31:38;;;;;;;15.07;8.55;;;;;;;3.86;28.01;102227.09;7711107;32;37190;-78
2022/03/20 03:35:59;;;;;;;14.52;9.10;;;;;;;3.62;28.57;102231.44;7711358;32;39293;-78
2022/03/20 03:40:15;;;;;;;15.40;9.07;;;;;;;3.93;28.06;102228.09;7711113;32;40797;-78
2022/03/20 03:44:32;;;;;;;15.00;9.20;;;;;;;3.90;28.26;102239.25;7710716;32;38644;-77
2022/03/20 03:48:48;;;;;;;13.93;8.70;;;;;;;3.56;28.87;102249.12;7710999;32;37941;-78
2022/03/20 03:53:05;;;;;;;15.80;8.82;;;;;;;3.54;29.05;102245.78;7710810;32;40033;-78
2022/03/20 03:57:21;;;;;;;16.10;9.30;;;;;;;3.22;29.64;102243.81;7710604;32;40780;-78
2022/03/20 04:01:37;;;;;;;13.65;8.63;;;;;;;3.34;29.51;102255.97;7710633;32;37781;-77
2022/03/20 04:05:54;;;;;;;18.85;9.77;;;;;;;3.43;29.35;102253.31;7710761;32;38140;-78
2022/03/20 04:10:10;;;;;;;16.20;9.07;;;;;;;2.69;30.78;102261.06;7710629;32;39986;-77
2022/03/20 04:14:26;;;;;;;15.50;8.65;;;;;;;3.07;30.41;102258.91;7710551;32;39996;-77
2022/03/20 04:18:42;;;;;;;19.83;10.10;;;;;;;3.07;30.17;102267.87;7710312;32;37871;-78
2022/03/20 04:27:34;;;;;;;17.62;9.30;;;;;;;3.09;30.45;102283.87;7710392;32;39370;-77
2022/03/20 04:31:50;;;;;;;16.50;9.23;;;;;;;3.08;30.51;102287.56;7696249;32;40039;-77
2022/03/20 04:36:08;;;;;;;17.70;9.80;;;;;;;3.39;30.18;102286.00;7709991;32;37983;-77
2022/03/20 04:40:25;;;;;;;16.02;9.57;;;;;;;3.17;30.56;102294.69;7710057;32;37240;-78
2022/03/20 04:44:43;;;;;;;16.50;9.40;;;;;;;3.06;30.63;102303.91;7709812;32;40732;-77
2022/03/20 05:02:45;;;;;;;14.85;9.32;;;;;;;2.85;31.40;102325.84;7709340;32;39456;-78
2022/03/20 05:07:01;;;;;;;15.60;9.52;;;;;;;2.59;31.99;102339.31;7709290;32;39983;-77
2022/03/20 05:15:55;;;;;;;17.65;9.98;;;;;;;2.73;32.23;102337.88;7708854;32;37256;-77
2022/03/20 05:20:12;;;;;;;17.58;9.80;;;;;;;2.70;32.30;102351.66;7708964;32;40056;-77
2022/03/20 05:24:28;;;;;;;17.25;9.65;;;;;;;3.22;31.65;102346.25;7708817;32;40853;-77
2022/03/20 05:28:44;;;;;;;17.87;10.00;;;;;;;3.13;31.85;102349.94;7708606;32;38580;-77
2022/03/20 05:33:00;;;;;;;19.10;10.98;;;;;;;3.16;31.93;102357.69;7709941;32;37314;-78
2022/03/20 05:37:16;;;;;;;17.15;9.90;;;;;;;2.94;32.28;102362.59;7712506;32;39320;-77
2022/03/20 05:41:48;;;;;;;15.73;10.23;;;;;;;2.99;32.27;102364.84;7712581;32;40152;-76
2022/03/20 05:46:04;;;;;;;19.87;10.50;;;;;;;2.91;32.55;102368.31;7712484;32;37941;-75
2022/03/20 05:50:23;;;;;;;19.45;10.32;;;;;;;2.75;32.74;102370.91;7712425;32;37177;-74
2022/03/20 05:54:39;;;;;;;18.23;9.73;;;;;;;3.16;32.50;102371.19;7712542;32;39848;-78
2022/03/20 05:58:57;;;;;;;17.62;10.40;;;;;;;3.17;32.39;102375.56;7712765;32;40508;-76
2022/03/20 06:03:14;;;;;;;17.95;10.20;;;;;;;3.51;32.06;102380.13;7712387;32;36821;-77
2022/03/20 06:07:30;;;;;;;15.20;10.05;;;;;;;3.51;32.11;102390.91;7712340;32;37258;-77
2022/03/20 06:11:46;;;;;;;18.42;10.55;;;;;;;3.54;32.06;102393.28;7712138;32;40019;-77
2022/03/20 06:16:03;;;;;;;17.15;10.30;;;;;;;2.93;32.97;102411.28;7711896;32;39686;-78
2022/03/20 06:20:19;;;;;;;22.42;11.07;;;;;;;3.66;31.98;102410.88;7711984;32;37749;-78
2022/03/20 06:24:35;;;;;;;16.52;9.10;;;;;;;3.75;31.78;102420.69;7712124;32;37753;-78
2022/03/20 06:28:52;;;;;;;17.62;8.82;;;;;;;3.85;31.66;102430.53;7711812;32;39003;-77
2022/03/20 06:33:08;;;;;;;17.15;9.23;;;;;;;4.14;31.16;102436.34;7698218;32;40041;-78
2022/03/20 06:37:24;;;;;;;17.52;9.27;;;;;;;4.38;30.60;102441.97;7711775;32;38737;-78
2022/03/20 06:41:40;;;;;;;19.08;9.75;;;;;;;4.51;30.65;102447.75;7711866;32;37923;-78
2022/03/20 06:46:01;;;;;;;15.30;9.85;;;;;;;4.07;31.39;102451.53;7710615;32;39711;-77
2022/03/20 06:50:37;;;;;;;15.75;9.68;;;;;;;4.61;30.69;102463.81;7711469;32;41026;-77
2022/03/20 06:54:54;;;;;;;15.95;9.73;;;;;;;4.91;30.08;102469.56;7711128;32;38418;-77
2022/03/20 06:59:14;;;;;;;15.95;9.52;;;;;;;4.65;30.50;102470.56;7711323;32;37357;-76
2022/03/20 07:03:30;;;;;;;17.58;10.43;;;;;;;4.76;30.62;102481.06;7711732;32;39538;-75
2022/03/20 07:07:46;;;;;;;16.17;9.35;;;;;;;5.19;29.92;102473.63;7711535;32;39916;-76
2022/03/20 07:12:02;;;;;;;16.58;9.85;;;;;;;5.48;29.63;102465.97;7711587;32;37928;-77
2022/03/20 07:16:21;;;;;;;18.40;9.60;;;;;;;5.52;29.65;102478.13;7708760;32;37153;-77
2022/03/20 07:20:42;;;;;;;17.92;10.68;;;;;;;5.68;29.45;102482.66;7698385;32;39243;-79
2022/03/20 07:29:29;;;;;;;17.55;9.18;;;;;;;5.52;29.49;102497.91;7710857;32;40004;-79
2022/03/20 07:29:34;;;;;;;16.25;9.85;;;;;;;5.80;29.65;102498.34;7710702;32;38806;-77
2022/03/20 07:33:50;;;;;;;17.02;9.40;;;;;;;5.98;29.24;102484.59;7690388;32;37907;-78
2022/03/20 07:38:06;;;;;;;16.45;10.00;;;;;;;6.10;29.13;102500.47;7706616;32;39278;-75
2022/03/20 07:42:26;;;;;;;18.77;9.57;;;;;;;6.15;29.10;102488.09;7710177;32;39925;-76
2022/03/20 07:46:42;;;;;;;18.17;10.25;;;;;;;6.18;28.81;102486.91;7711011;32;38061;-76
2022/03/20 07:50:59;;;;;;;19.02;9.95;;;;;;;6.64;28.24;102488.84;7689629;32;37293;-76
2022/03/20 07:55:15;;;;;;;17.27;9.80;;;;;;;6.88;32.22;102490.53;7732930;32;39355;-77
2022/03/20 07:59:32;;;;;;;17.00;9.68;;;;;;;6.80;28.96;102482.47;7737127;32;40745;-75
2022/03/20 08:03:48;;;;;;;18.85;9.45;;;;;;;7.61;26.86;102480.03;7713119;32;38729;-75
2022/03/20 08:08:04;;;;;;;15.70;10.07;;;;;;;7.66;26.90;102478.44;7707675;32;37261;-74
2022/03/20 08:12:22;;;;;;;16.60;9.70;;;;;;;7.50;26.06;102474.03;7707722;32;39813;-73
2022/03/20 08:16:57;;;;;;;19.65;9.55;;;;;;;8.32;25.94;102477.63;7698514;32;40488;-79
2022/03/20 08:21:13;;;;;;;19.50;9.20;;;;;;;8.31;26.43;102470.50;7720243;32;38462;-74
2022/03/20 08:25:29;;;;;;;16.98;9.43;;;;;;;8.63;26.52;102468.38;7717234;32;37011;-80
2022/03/20 08:29:45;;;;;;;18.37;9.38;;;;;;;8.86;26.77;102461.91;7733736;32;39237;-78
2022/03/20 08:34:02;;;;;;;17.75;9.30;;;;;;;8.70;25.06;102452.97;7690134;32;39918;-71
2022/03/20 08:38:18;;;;;;;16.52;9.05;;;;;;;8.95;23.88;102458.00;7704770;32;38651;-72
2022/03/20 08:42:34;;;;;;;14.55;9.02;;;;;;;8.71;25.02;102459.25;7709909;32;37162;-77
2022/03/20 08:46:50;;;;;;;18.30;9.30;;;;;;;9.37;22.65;102459.00;7713931;32;239415;-78
2022/03/20 08:51:06;;;;;;;15.32;9.00;;;;;;;9.39;22.91;102465.91;7684214;32;40802;-78
2022/03/20 08:55:22;;;;;;;17.37;8.85;;;;;;;9.46;22.34;102462.41;7682706;32;38602;-77
2022/03/20 08:59:39;;;;;;;15.90;8.57;;;;;;;9.02;23.11;102451.59;7702983;32;37829;-79
2022/03/20 09:03:55;;;;;;;17.27;9.38;;;;;;;9.31;23.41;102457.03;7708610;32;39539;-79
2022/03/20 09:08:11;;;;;;;16.75;9.05;;;;;;;9.28;22.60;102443.81;7709342;32;39609;-78
2022/03/20 09:12:27;;;;;;;16.00;8.57;;;;;;;9.37;22.44;102453.53;7712423;32;37992;-78
2022/03/20 09:21:18;;;;;;;17.37;8.57;;;;;;;10.20;22.23;102455.44;7706985;32;39011;-78
2022/03/20 09:25:34;;;;;;;14.87;8.63;;;;;;;9.81;21.18;102451.50;7717086;32;41137;-78
2022/03/20 09:29:51;;;;;;;15.90;9.13;;;;;;;10.17;21.01;102443.06;7711999;32;37905;-79
2022/03/20 09:34:09;;;;;;;17.58;8.90;;;;;;;10.15;22.13;102448.69;7703718;32;36874;-80
2022/03/20 09:38:26;;;;;;;26.00;8.55;;;;;;;10.72;20.60;102434.81;7700283;32;39443;-79
2022/03/20 09:42:42;;;;;;;16.62;8.70;;;;;;;10.92;20.55;102436.72;7685282;32;39989;-79
2022/03/20 09:46:58;;;;;;;14.95;9.18;;;;;;;11.01;19.95;102441.78;7685328;32;37993;-78
2022/03/20 09:51:14;;;;;;;15.88;8.32;;;;;;;10.15;21.27;102445.16;7700736;32;37568;-79
2022/03/20 09:55:31;;;;;;;14.93;8.43;;;;;;;11.12;21.26;102440.28;7711984;32;39333;-79
2022/03/20 09:59:49;;;;;;;14.15;9.05;;;;;;;11.83;21.08;102441.41;7711727;32;39745;-78
2022/03/20 10:04:13;;;;;;;16.17;9.13;;;;;;;12.10;20.14;102441.34;7711846;32;38121;-78
2022/03/20 10:08:29;;;;;;;14.87;8.48;;;;;;;11.58;19.37;102430.37;7712368;32;37810;-78
2022/03/20 10:12:49;;;;;;;13.50;8.40;;;;;;;12.64;20.66;102431.81;7712214;32;39264;-76
2022/03/20 10:17:17;;;;;;;15.48;9.13;;;;;;;13.32;18.69;102416.50;7712029;32;39853;-76
2022/03/20 10:21:46;;;;;;;12.37;8.23;;;;;;;13.35;18.54;102413.31;7710846;32;37994;-81
2022/03/20 10:26:09;;;;;;;13.45;7.47;;;;;;;13.44;17.51;102398.25;7711480;32;37324;-80
2022/03/20 10:30:25;;;;;;;14.33;8.40;;;;;;;13.32;17.50;102400.91;7711783;32;39290;-81
2022/03/20 10:34:54;;;;;;;15.20;8.63;;;;;;;13.12;17.86;102406.56;7711609;32;39816;-79
2022/03/20 10:39:16;;;;;;;13.05;7.85;;;;;;;13.49;17.33;102390.19;7711489;32;37987;-78
2022/03/20 10:43:40;;;;;;;12.55;7.55;;;;;;;13.21;17.83;102398.03;7711601;32;37838;-82
2022/03/20 10:48:09;;;;;;;13.23;8.38;;;;;;;13.50;16.88;102399.22;7697860;32;40186;-78
2022/03/20 10:52:25;;;;;;;16.80;8.32;;;;;;;13.33;17.77;102405.31;7680155;32;40109;-81
2022/03/20 10:56:58;;;;;;;13.90;7.75;;;;;;;14.33;17.07;102394.16;7684703;32;38752;-80
2022/03/20 11:01:14;;;;;;;15.60;7.70;;;;;;;14.63;16.52;102389.50;7684754;32;37965;-79
2022/03/20 11:05:30;;;;;;;16.08;7.40;;;;;;;14.95;15.63;102385.59;7707741;32;39316;-81
2022/03/20 11:09:48;;;;;;;14.52;6.97;;;;;;;15.24;15.22;102383.00;7711228;32;39898;-80
2022/03/20 11:14:05;;;;;;;15.20;7.72;;;;;;;15.34;15.60;102375.81;7710954;32;38061;-78
2022/03/20 11:18:23;;;;;;;11.85;6.05;;;;;;;15.49;14.61;102372.56;7710957;32;37080;-82
2022/03/20 11:22:50;;;;;;;16.60;6.57;;;;;;;15.28;14.67;102364.94;7710828;32;39206;-74
2022/03/20 11:27:10;;;;;;;11.27;6.62;;;;;;;15.86;14.34;102357.66;7698325;32;40755;-79
2022/03/20 11:31:27;;;;;;;12.07;6.87;;;;;;;15.93;16.43;102341.84;7710310;32;38828;-76
2022/03/20 11:35:44;;;;;;;15.10;7.37;;;;;;;16.84;14.11;102340.97;7710791;32;38014;-81
2022/03/20 11:40:20;;;;;;;15.90;7.57;;;;;;;17.21;13.61;102326.59;7710377;32;39399;-79
2022/03/20 11:44:49;;;;;;;12.80;7.60;;;;;;;16.99;13.45;102334.84;7710918;32;40779;-81
2022/03/20 11:49:17;;;;;;;14.63;8.10;;;;;;;17.46;12.97;102323.38;7698535;32;37999;-80
2022/03/20 11:53:37;;;;;;;14.30;7.43;;;;;;;17.15;12.46;102314.69;7724922;32;37265;-82
2022/03/20 11:58:00;;;;;;;13.27;7.70;;;;;;;16.23;13.78;102310.47;7723427;32;40218;-82
2022/03/20 12:02:17;;;;;;;12.55;7.57;;;;;;;16.51;13.56;102301.31;7710587;32;40977;-83
2022/03/20 12:06:48;;;;;;;11.63;6.65;;;;;;;17.26;13.52;102294.44;7710591;32;38710;-81
2022/03/20 12:11:26;;;;;;;13.57;7.22;;;;;;;17.40;12.88;102294.91;7710756;32;37039;-81
2022/03/20 12:15:45;;;;;;;10.75;6.45;;;;;;;15.61;14.48;102291.94;7710583;32;39624;-82
2022/03/20 12:20:01;;;;;;;12.43;6.85;;;;;;;16.67;12.81;102275.66;7696681;32;39907;-82
2022/03/20 12:24:36;;;;;;;16.77;6.90;;;;;;;16.15;13.34;102276.75;7714335;32;38726;-81
2022/03/20 12:28:53;;;;;;;11.23;6.62;;;;;;;16.26;12.86;102274.19;7736784;32;37127;-81
2022/03/20 12:33:23;;;;;;;11.27;5.95;;;;;;;15.54;12.91;102272.88;7737109;32;39110;-83
2022/03/20 12:37:40;;;;;;;9.18;5.90;;;;;;;15.23;12.96;102269.50;7714967;32;40809;-82
2022/03/20 12:41:57;;;;;;;9.95;5.03;;;;;;;14.93;13.85;102262.25;7722133;32;38025;-82
2022/03/20 12:46:13;;;;;;;9.57;4.12;;;;;;;14.73;12.98;102264.53;7739838;32;37260;-80
2022/03/20 12:50:35;;;;;;;7.53;4.18;;;;;;;15.26;12.29;102247.00;7739894;32;39482;-82
2022/03/20 12:54:53;;;;;;;7.85;4.53;;;;;;;15.19;12.14;102247.16;7724960;32;40931;-81
2022/03/20 12:59:25;;;;;;;12.18;4.50;;;;;;;15.50;12.01;102249.69;7739862;32;38784;-81
2022/03/20 13:03:42;;;;;;;18.45;4.95;;;;;;;15.87;11.52;102250.16;7738044;32;37236;-81
2022/03/20 13:07:58;;;;;;;7.10;4.05;;;;;;;15.43;10.93;102246.25;7738762;32;39322;-81
2022/03/20 13:12:14;;;;;;;6.97;4.12;;;;;;;15.29;10.75;102251.19;7738782;32;39877;-81
2022/03/20 13:16:32;;;;;;;8.35;4.37;;;;;;;15.50;11.38;102244.19;7725356;32;38693;-81
2022/03/20 13:20:49;;;;;;;9.20;4.68;;;;;;;15.81;11.75;102244.78;7739721;32;36703;-82
2022/03/20 13:25:18;;;;;;;10.73;4.45;;;;;;;16.15;10.61;102232.72;7739489;32;39836;-81
2022/03/20 13:29:36;;;;;;;12.40;4.20;;;;;;;16.09;10.18;102225.50;7739630;32;40893;-81
2022/03/20 13:33:59;;;;;;;7.97;4.07;;;;;;;15.38;11.12;102234.09;7739308;32;37878;-80
2022/03/20 13:38:15;;;;;;;7.55;3.97;;;;;;;15.87;10.44;102221.81;7739486;32;37092;-80
2022/03/20 13:42:33;;;;;;;8.50;4.12;;;;;;;16.36;9.88;102219.31;7725579;32;40253;-82
2022/03/20 13:46:50;;;;;;;7.62;4.22;;;;;;;15.54;10.63;102220.63;7739431;32;39617;-82
2022/03/20 13:51:06;;;;;;;7.37;4.22;;;;;;;15.55;10.20;102211.28;7725557;32;37544;-81
2022/03/20 13:55:31;;;;;;;8.02;4.28;;;;;;;15.48;10.26;102211.44;7725450;32;38600;-80
2022/03/20 13:59:51;;;;;;;6.05;3.60;;;;;;;15.08;11.07;102208.72;7726191;32;39146;-81
2022/03/20 14:04:14;;;;;;;8.02;4.20;;;;;;;14.79;11.17;102205.91;7739195;32;40989;-80
2022/03/20 14:08:31;;;;;;;7.28;4.20;;;;;;;15.04;11.51;102205.63;7739095;32;37888;-81
2022/03/20 14:12:47;;;;;;;10.38;4.82;;;;;;;14.55;11.46;102211.38;7739178;32;37696;-81
2022/03/20 14:17:04;;;;;;;10.80;4.40;;;;;;;14.56;12.19;102201.28;7739081;32;39907;-81
2022/03/20 14:21:23;;;;;;;11.90;6.03;;;;;;;14.48;12.65;102205.19;7738412;32;40872;-80
2022/03/20 14:25:44;;;;;;;12.10;5.28;;;;;;;14.43;12.72;102197.66;7725372;32;37692;-80
2022/03/20 14:39:26;;;;;;;9.15;5.65;;;;;;;15.64;11.05;102185.06;7738476;32;39875;-80
2022/03/20 14:43:43;;;;;;;9.52;5.20;;;;;;;15.42;11.56;102184.09;7738405;32;38803;-81
2022/03/20 14:47:59;;;;;;;8.85;5.07;;;;;;;15.80;10.72;102175.22;7738724;32;36876;-80
2022/03/20 14:52:15;;;;;;;10.75;5.85;;;;;;;16.12;10.97;102169.13;7738391;32;39155;-80
2022/03/20 14:56:37;;;;;;;9.40;5.10;;;;;;;16.36;10.88;102167.00;7738414;32;39859;-80
2022/03/20 15:00:54;;;;;;;10.05;5.37;;;;;;;15.82;10.97;102163.97;7738340;32;37631;-80
2022/03/20 15:05:11;;;;;;;11.00;5.50;;;;;;;16.04;10.62;102150.28;7737695;32;37967;-80
2022/03/20 15:14:03;;;;;;;10.23;5.43;;;;;;;15.00;12.04;102147.59;7738376;32;40908;-81
2022/03/20 15:18:19;;;;;;;8.30;4.75;;;;;;;15.68;11.02;102146.94;7738192;32;38468;-81
2022/03/20 15:22:35;;;;;;;8.88;5.10;;;;;;;15.99;11.05;102139.19;7738416;32;37878;-81
2022/03/20 15:26:52;;;;;;;9.68;4.78;;;;;;;15.70;11.16;102142.81;7738424;32;39345;-81
2022/03/20 15:31:11;;;;;;;12.20;4.68;;;;;;;15.10;11.73;102143.38;7738177;32;40089;-81
2022/03/20 15:35:27;;;;;;;7.20;4.22;;;;;;;15.15;11.26;102138.81;7737984;32;37873;-81
2022/03/20 15:39:44;;;;;;;8.88;4.47;;;;;;;14.55;11.27;102144.69;7737991;32;37383;-81
2022/03/20 15:44:01;;;;;;;10.23;4.90;;;;;;;14.52;11.42;102143.28;7738055;32;39318;-81
2022/03/20 15:48:18;;;;;;;12.07;4.40;;;;;;;14.20;11.25;102143.66;7737938;32;40847;-81
2022/03/20 15:52:35;;;;;;;7.43;4.68;;;;;;;12.77;13.01;102149.75;7737624;32;37853;-80
2022/03/20 15:56:51;;;;;;;9.02;4.55;;;;;;;13.04;12.51;102143.94;7737515;32;36777;-80
2022/03/20 16:01:10;;;;;;;7.05;4.55;;;;;;;13.22;12.32;102143.06;7737806;32;39187;-80
2022/03/20 16:05:26;;;;;;;9.40;4.68;;;;;;;12.40;13.21;102155.22;7737741;32;39997;-80
2022/03/20 16:09:42;;;;;;;10.65;4.87;;;;;;;12.71;13.07;102153.41;7737649;32;37908;-80
2022/03/20 16:14:04;;;;;;;9.05;4.57;;;;;;;12.16;13.49;102156.09;7737571;32;37040;-80
2022/03/20 16:18:21;;;;;;;9.45;4.78;;;;;;;11.30;14.00;102149.34;7737339;32;40057;-80
2022/03/20 16:31:56;;;;;;;12.30;5.47;;;;;;;12.03;13.77;102141.47;7737317;32;37006;-80
2022/03/20 16:36:17;;;;;;;12.95;5.70;;;;;;;12.10;14.11;102140.59;7737151;32;39933;-79
2022/03/20 16:40:33;;;;;;;13.10;6.25;;;;;;;12.07;14.00;102141.03;7736938;32;40521;-79
2022/03/20 16:44:54;;;;;;;13.95;6.80;;;;;;;12.02;13.98;102139.81;7736963;32;38447;-80
2022/03/20 16:49:10;;;;;;;11.32;5.57;;;;;;;11.62;14.49;102134.66;7737765;32;37162;-80
2022/03/20 16:53:26;;;;;;;10.15;5.55;;;;;;;11.26;15.17;102143.47;7736545;32;40221;-80
2022/03/20 16:57:42;;;;;;;10.48;5.43;;;;;;;11.20;15.23;102137.00;7736404;32;40742;-80
2022/03/20 17:01:58;;;;;;;14.02;5.32;;;;;;;10.86;15.29;102143.69;7735795;32;37718;-80
2022/03/20 17:06:14;;;;;;;14.75;5.10;;;;;;;10.84;16.03;102135.69;7735757;32;38193;-80
2022/03/20 17:10:30;;;;;;;8.60;4.95;;;;;;;10.59;15.88;102140.19;7731199;32;39322;-79
2022/03/20 17:14:47;;;;;;;10.38;5.37;;;;;;;10.27;16.51;102132.69;7709210;32;39992;-80
2022/03/20 17:19:03;;;;;;;11.82;5.70;;;;;;;10.10;16.64;102137.75;7708971;32;38035;-82
2022/03/20 17:23:19;;;;;;;13.57;5.82;;;;;;;10.15;17.36;102137.94;7716528;32;37754;-81
2022/03/20 17:27:35;;;;;;;14.68;7.15;;;;;;;10.03;16.98;102141.53;7721710;32;39853;-80
2022/03/20 17:31:51;;;;;;;21.48;9.23;;;;;;;9.88;16.98;102144.47;7696730;32;40056;-81
2022/03/20 17:36:07;;;;;;;12.60;6.72;;;;;;;9.55;17.37;102140.69;7711677;32;38619;-80
2022/03/20 17:40:24;;;;;;;14.93;8.00;;;;;;;9.24;17.64;102145.84;7711894;32;37890;-80
2022/03/20 17:44:40;;;;;;;13.65;6.12;;;;;;;9.12;17.45;102151.87;7700751;32;39552;-80
2022/03/20 17:48:56;;;;;;;12.90;5.97;;;;;;;8.98;17.38;102153.72;7696939;32;40908;-81
2022/03/20 17:53:14;;;;;;;12.45;7.75;;;;;;;9.08;17.10;102155.25;7711500;32;38562;-80
2022/03/20 17:57:31;;;;;;;12.48;6.60;;;;;;;9.09;17.71;102159.63;7711867;32;37080;-80
2022/03/20 18:01:52;;;;;;;12.55;6.28;;;;;;;8.98;18.24;102156.44;7711618;32;37982;-78
2022/03/20 18:10:43;;;;;;;16.60;7.45;;;;;;;8.44;18.63;102165.37;7711487;32;37789;-80
2022/03/20 18:15:00;;;;;;;11.68;5.62;;;;;;;8.28;19.22;102161.91;7711116;32;36846;-79
2022/03/20 18:19:17;;;;;;;13.55;6.55;;;;;;;8.12;19.31;102167.62;7711382;32;40453;-79
2022/03/20 18:23:33;;;;;;;13.18;7.00;;;;;;;8.33;18.91;102160.47;7710809;32;39892;-80
2022/03/20 18:27:50;;;;;;;29.90;16.33;;;;;;;7.95;19.77;102171.66;7710699;32;38581;-79
2022/03/20 18:32:06;;;;;;;22.95;12.07;;;;;;;8.04;19.80;102171.34;7685293;32;37296;-79
2022/03/20 18:36:22;;;;;;;15.15;7.57;;;;;;;7.60;20.92;102174.28;7684102;32;39573;-80
2022/03/20 18:40:38;;;;;;;14.93;8.07;;;;;;;7.71;20.88;102177.31;7683341;32;40509;-80
2022/03/20 18:44:55;;;;;;;15.43;8.00;;;;;;;7.59;20.47;102172.59;7683898;32;38713;-79
2022/03/20 18:49:11;;;;;;;11.10;6.30;;;;;;;7.38;20.70;102182.44;7696093;32;38439;-80
2022/03/20 18:53:27;;;;;;;10.05;5.68;;;;;;;7.26;21.21;102178.50;7707953;32;40055;-80
2022/03/20 18:57:43;;;;;;;10.85;5.70;;;;;;;6.92;21.02;102183.53;7710481;32;40279;-79
2022/03/20 19:02:00;;;;;;;13.52;6.97;;;;;;;7.03;21.12;102190.34;7710481;32;37733;-80
2022/03/20 19:06:17;;;;;;;11.65;6.70;;;;;;;6.48;21.56;102187.09;7710942;32;37151;-80
2022/03/20 19:10:33;;;;;;;13.75;7.18;;;;;;;6.83;21.54;102189.25;7710358;32;40098;-79
2022/03/20 19:14:49;;;;;;;13.30;6.28;;;;;;;6.95;21.66;102195.87;7709808;32;40873;-79
2022/03/20 19:19:05;;;;;;;13.35;6.37;;;;;;;6.68;22.42;102195.53;7710281;32;38036;-79
2022/03/20 19:23:21;;;;;;;13.10;6.72;;;;;;;6.36;22.56;102188.59;7710363;32;37312;-79
2022/03/20 19:27:38;;;;;;;11.25;6.15;;;;;;;6.15;22.98;102192.84;7710087;32;39603;-79
2022/03/20 19:31:54;;;;;;;13.43;7.10;;;;;;;6.24;22.98;102185.47;7710451;32;40094;-79
2022/03/20 19:40:45;;;;;;;11.98;6.87;;;;;;;6.07;23.10;102189.37;7684623;32;37249;-79
2022/03/20 19:45:04;;;;;;;16.23;7.53;;;;;;;5.82;23.26;102200.38;7683037;32;39920;-80
2022/03/20 19:49:20;;;;;;;11.30;6.37;;;;;;;5.90;23.39;102194.03;7683934;32;40113;-78
2022/03/20 19:53:36;;;;;;;13.62;7.32;;;;;;;5.52;23.20;102199.41;7690417;32;38553;-79
2022/03/20 19:57:52;;;;;;;11.52;6.97;;;;;;;5.68;23.11;102201.19;7710275;32;37396;-79
2022/03/20 20:02:09;;;;;;;10.15;6.65;;;;;;;5.83;23.42;102204.78;7709601;32;40130;-79
2022/03/20 20:06:27;;;;;;;11.98;6.68;;;;;;;5.77;23.73;102194.66;7707942;32;40793;-79
2022/03/20 20:10:44;;;;;;;12.23;6.72;;;;;;;5.25;24.08;102202.44;7707365;32;37842;-79
2022/03/20 20:15:00;;;;;;;16.12;7.30;;;;;;;5.39;24.12;102192.72;7707512;32;37504;-78
2022/03/20 20:19:16;;;;;;;14.23;7.18;;;;;;;5.48;23.93;102184.56;7705307;32;39810;-78
2022/03/20 20:23:32;;;;;;;12.45;7.15;;;;;;;5.35;24.51;102190.56;7707140;32;39870;-78
2022/03/20 20:27:49;;;;;;;13.00;7.22;;;;;;;5.30;24.42;102182.97;7708006;32;37900;-80
2022/03/20 20:32:06;;;;;;;11.65;7.05;;;;;;;4.97;24.97;102193.13;7707750;32;36776;-78
2022/03/20 20:36:22;;;;;;;16.17;6.93;;;;;;;4.97;24.85;102190.44;7703727;32;39432;-79
2022/03/20 20:40:39;;;;;;;11.00;6.87;;;;;;;4.49;24.83;102191.25;7705401;32;40730;-79
2022/03/20 20:44:55;;;;;;;12.65;7.05;;;;;;;4.63;24.63;102189.69;7706910;32;39199;-79
2022/03/20 20:49:17;;;;;;;12.40;6.78;;;;;;;4.94;24.59;102182.69;7707167;32;37329;-78
2022/03/20 20:53:34;;;;;;;13.57;6.72;;;;;;;4.60;25.48;102181.09;7706159;32;39018;-78
2022/03/20 20:57:50;;;;;;;11.05;6.65;;;;;;;4.59;25.74;102171.28;7692980;32;39885;-79
2022/03/20 21:02:07;;;;;;;14.10;6.78;;;;;;;4.38;25.49;102180.84;7694091;32;37440;-78